Houston, Delaware
Current Conditions -  °F | °C
As of 1:58 AM on Friday 31 Oct 2014 (Local Time) from KDOV Reporting Station
Scattered Clouds Scattered Clouds  
Wind Chill: 43°   Ceiling: Unl
Heat Index: 43°   Visibility: 10mi
Dew Point: 38°   Wind: 3mph
Humidity: 84%   Direction: 330°NNW
Pressure: 30"   Gusts: NA
Location:  38.92°N, 75.51°W
Report Text: KDOV 310558Z AUTO 33003KT 10SM SCT060 06/04 A3000 RMK AO2 SLP162 T00610036 10102 20043 55004
Loading
Personal Weather Stations






























Interactive Weather Map
Tropical Storm Tracking
New forecast layout! Learn more

10-Day Weather Forecast

Advertisements
Track Severe Weather on mobile